KFMH/FMH METAR and TAF weather

Enter ICAO airport designator
Station Type Date Time Source
KFMH METAR 2023/02/06 00:45 UTC NOAA

KFMH 060045Z 22015KT 10SM CLR 06/02 A3002


Station Type Date Time Source
KFMH Decoded METAR 2023/02/06 00:45 UTC NOAA

Otis Air National Guard Base, MA, United States (KFMH) 41-39N 070-31W
Feb 05, 2023 - 07:45 PM EST / 2023.02.06 0045 UTC
Wind: from the SW (220 degrees) at 17 MPH (15 KT):0
Visibility: 10 mile(s):0
Sky conditions: clear
Temperature: 42 F (6 C)
Dew Point: 35 F (2 C)
Relative Humidity: 75%
Pressure (altimeter): 30.02 in. Hg (1016 hPa)
ob: KFMH 060045Z 22015KT 10SM CLR 06/02 A3002
cycle: 1

Station Type Date Time Source
KFMH TAF 2023/02/05 21:03 UTC NOAA

TAF
AMD KFMH 052100Z 0521/0618 22017G23KT P6SM SKC
FM052230 23012KT P6SM OVC100
FM060600 22006KT P6SM OVC090
FM060900 22009KT 2SM BR VCSH OVC015
FM061200 VRB03KT 1SM BR OVC025
FM061600 36010KT P6SM BKN150

Example: see airport list